createdAt,value
2018-05-29T07:23:11.835Z,32.60
2018-05-29T07:25:45.744Z,32.50
2018-05-29T07:28:19.676Z,33.00
2018-05-29T07:30:53.580Z,33.30
2018-05-29T07:33:27.548Z,33.10
2018-05-29T07:36:02.224Z,33.50
2018-05-29T07:38:36.461Z,33.50
2018-05-29T07:41:15.762Z,33.60
2018-05-29T07:43:49.912Z,33.30
2018-05-29T07:46:24.780Z,33.40
2018-05-29T07:48:58.742Z,33.30
2018-05-29T07:51:32.665Z,33.00
2018-05-29T07:54:07.375Z,34.10
2018-05-29T07:56:41.279Z,34.10
2018-05-29T07:59:15.241Z,34.50
2018-05-29T08:01:49.152Z,34.80
2018-05-29T08:04:24.053Z,34.80
2018-05-29T08:06:57.961Z,35.10
2018-05-29T08:09:32.678Z,34.90
2018-05-29T08:12:07.354Z,34.90
2018-05-29T08:14:41.304Z,34.90
2018-05-29T08:17:16.947Z,34.50
2018-05-29T08:19:51.720Z,34.40
2018-05-29T08:22:29.518Z,34.30
2018-05-29T08:25:06.330Z,33.20
2018-05-29T08:27:41.191Z,33.20
2018-05-29T08:30:17.167Z,33.10
2018-05-29T08:32:51.204Z,32.70
2018-05-29T08:38:07.644Z,32.30
2018-05-29T08:40:41.749Z,32.40
2018-05-29T08:43:17.548Z,32.50
2018-05-29T08:45:56.575Z,32.30
2018-05-29T08:51:32.932Z,32.00
2018-05-29T08:54:10.671Z,31.80
2018-05-29T08:56:45.656Z,32.40
2018-05-29T08:59:27.448Z,32.90
2018-05-29T09:02:04.663Z,33.10
2018-05-29T09:04:39.791Z,33.00
2018-05-29T09:07:20.595Z,33.00
2018-05-29T09:09:54.770Z,32.70
2018-05-29T09:12:31.814Z,32.10
2018-05-29T09:15:07.524Z,32.50
2018-05-29T09:17:46.983Z,32.50
2018-05-29T09:20:22.778Z,32.50
2018-05-29T09:22:57.006Z,32.70
2018-05-29T09:25:33.921Z,33.00
2018-05-29T09:28:12.332Z,33.50
2018-05-29T09:30:52.032Z,33.70
2018-05-29T09:33:29.916Z,33.80
2018-05-29T09:36:07.874Z,34.10
2018-05-29T09:38:54.992Z,33.90
2018-05-29T09:41:29.994Z,33.90
2018-05-29T09:44:04.919Z,33.80
2018-05-29T09:46:39.832Z,33.40
2018-05-29T09:49:14.505Z,32.90
2018-05-29T09:51:49.469Z,32.90
2018-05-29T09:54:23.411Z,33.00
2018-05-29T09:56:57.361Z,33.30
2018-05-29T09:59:31.324Z,32.70
2018-05-29T10:02:05.146Z,32.60
2018-05-29T10:04:39.061Z,32.50
2018-05-29T10:07:14.027Z,32.50
2018-05-29T10:09:48.347Z,32.60
2018-05-29T10:12:23.545Z,32.30
2018-05-29T10:14:57.488Z,32.30
2018-05-29T10:17:31.401Z,32.70
2018-05-29T10:20:05.379Z,32.60
2018-05-29T10:22:40.291Z,32.70
2018-05-29T10:25:14.208Z,32.40
2018-05-29T10:27:49.133Z,32.40
2018-05-29T10:30:23.045Z,31.60
2018-05-29T10:32:57.992Z,31.50
2018-05-29T10:35:31.920Z,31.30
2018-05-29T10:38:05.879Z,31.10
2018-05-29T10:40:39.828Z,30.90
2018-05-29T10:43:13.740Z,30.80
2018-05-29T10:45:47.675Z,31.10
2018-05-29T10:48:23.630Z,31.50
2018-05-29T10:50:59.307Z,31.90
2018-05-29T10:53:53.945Z,31.90
2018-05-29T10:56:38.145Z,32.10
2018-05-29T10:59:15.027Z,32.30
2018-05-29T11:01:53.681Z,32.20
2018-05-29T11:04:29.332Z,32.00
2018-05-29T11:07:04.483Z,31.80
2018-05-29T11:09:43.023Z,31.30
2018-05-29T11:15:46.091Z,31.30
2018-05-29T11:21:18.958Z,31.80
2018-05-29T11:24:04.358Z,32.20
2018-05-29T11:40:47.078Z,31.10
2018-05-29T11:43:34.141Z,31.10
2018-05-29T11:52:01.038Z,31.40
2018-05-29T11:54:38.813Z,31.60
2018-05-29T11:57:16.745Z,31.70
2018-05-29T11:59:59.322Z,31.80
2018-05-29T12:02:36.201Z,31.90
2018-05-29T12:05:09.923Z,31.90
2018-05-29T12:07:52.028Z,31.80
2018-05-29T12:10:26.828Z,31.30
2018-05-29T12:13:01.795Z,31.10
2018-05-29T12:15:35.706Z,31.00
2018-05-29T12:18:09.660Z,31.20
2018-05-29T12:20:43.573Z,31.40
2018-05-29T12:23:18.511Z,31.30
2018-05-29T12:25:52.423Z,31.20
2018-05-29T12:28:27.327Z,31.30
2018-05-29T12:31:01.258Z,31.30
2018-05-29T12:33:35.207Z,31.20
2018-05-29T12:36:09.134Z,31.30
2018-05-29T12:38:43.850Z,31.00
2018-05-29T12:41:17.759Z,31.00
2018-05-29T12:43:51.713Z,30.90
2018-05-29T12:46:25.740Z,30.80
2018-05-29T12:48:59.775Z,30.70
2018-05-29T12:51:33.678Z,30.50
2018-05-29T12:54:07.631Z,30.50
2018-05-29T12:56:41.535Z,30.80
2018-05-29T12:59:15.488Z,30.80
2018-05-29T13:01:49.392Z,30.80
2018-05-29T13:04:23.331Z,30.80
2018-05-29T13:06:57.230Z,30.80
2018-05-29T13:09:31.176Z,30.80
2018-05-29T13:12:05.136Z,30.70
2018-05-29T13:14:39.091Z,30.60
2018-05-29T13:17:13.033Z,30.50
2018-05-29T13:19:46.993Z,30.50
2018-05-29T13:22:22.344Z,30.40
2018-05-29T13:24:57.242Z,30.40
2018-05-29T13:27:31.150Z,30.60
2018-05-29T13:30:05.455Z,30.60
2018-05-29T13:32:39.426Z,30.50
2018-05-29T13:35:14.344Z,30.40
2018-05-29T13:37:48.441Z,30.40
2018-05-29T13:40:22.393Z,30.40
2018-05-29T13:42:56.499Z,30.40
2018-05-29T13:45:30.446Z,30.40
2018-05-29T13:48:05.126Z,30.30
2018-05-29T13:50:39.074Z,30.30
2018-05-29T13:53:13.937Z,30.30
2018-05-29T13:55:48.848Z,30.30
2018-05-29T13:58:23.525Z,30.20
2018-05-29T14:00:57.145Z,30.20
2018-05-29T14:03:31.064Z,30.20
2018-05-29T14:06:05.036Z,30.20
2018-05-29T14:08:39.713Z,30.00
2018-05-29T14:11:15.402Z,30.10
2018-05-29T14:13:50.307Z,30.10
2018-05-29T14:16:24.256Z,30.10
2018-05-29T14:18:59.147Z,30.00
2018-05-29T14:21:33.126Z,30.00
2018-05-29T14:24:07.802Z,30.00
2018-05-29T14:26:42.720Z,30.00
2018-05-29T14:29:16.675Z,30.00
2018-05-29T14:31:50.790Z,30.00
2018-05-29T14:34:25.677Z,30.10
2018-05-29T14:36:59.629Z,30.10
2018-05-29T14:39:33.537Z,30.00
2018-05-29T14:42:07.482Z,30.00
2018-05-29T14:44:41.392Z,29.90
2018-05-29T14:47:15.336Z,29.90
2018-05-29T14:49:49.251Z,29.70
2018-05-29T14:52:23.224Z,29.50
2018-05-29T14:54:57.144Z,29.50
2018-05-29T14:57:31.388Z,29.50
2018-05-29T15:00:05.357Z,29.40
2018-05-29T15:02:39.312Z,29.40
2018-05-29T15:05:13.520Z,29.20
2018-05-29T15:07:47.463Z,29.20
2018-05-29T15:10:21.652Z,29.10
2018-05-29T15:12:55.889Z,29.10
2018-05-29T15:15:29.805Z,29.10
2018-05-29T15:18:04.037Z,29.00
2018-05-29T15:20:39.204Z,28.90
2018-05-29T15:23:13.443Z,28.80
2018-05-29T15:25:47.640Z,28.60
2018-05-29T15:28:22.843Z,28.60
2018-05-29T15:30:58.056Z,28.60
2018-05-29T15:33:32.293Z,28.50
2018-05-29T15:36:07.444Z,28.50
2018-05-29T15:38:41.700Z,28.40
2018-05-29T15:41:15.894Z,28.30
2018-05-29T15:43:50.145Z,28.40
2018-05-29T15:46:25.108Z,28.20
2018-05-29T15:48:59.353Z,28.20
2018-05-29T15:51:33.569Z,28.20
2018-05-29T15:54:08.796Z,28.10
2018-05-29T15:56:43.000Z,28.00
2018-05-29T15:59:17.241Z,28.00
2018-05-29T16:01:51.438Z,28.00
2018-05-29T16:04:25.671Z,27.90
2018-05-29T16:07:00.826Z,27.90
2018-05-29T16:09:35.062Z,27.90
2018-05-29T16:12:09.268Z,27.90
2018-05-29T16:14:45.254Z,27.80
2018-05-29T16:17:20.426Z,27.80
2018-05-29T16:19:54.678Z,27.70
2018-05-29T16:22:29.654Z,27.60
2018-05-29T16:25:05.655Z,27.60
2018-05-29T16:27:40.622Z,27.50
2018-05-29T16:30:15.844Z,27.50
2018-05-29T16:32:50.055Z,27.40
2018-05-29T16:35:26.223Z,27.40
2018-05-29T16:38:00.421Z,27.40
2018-05-29T16:40:35.155Z,27.30
2018-05-29T16:43:09.523Z,27.20
2018-05-29T16:45:43.778Z,27.20
2018-05-29T16:48:18.744Z,27.10
2018-05-29T16:50:53.936Z,27.00
2018-05-29T16:53:29.173Z,26.90
2018-05-29T16:56:05.459Z,26.80
2018-05-29T16:58:40.672Z,26.80
2018-05-29T17:01:15.832Z,26.60
2018-05-29T17:03:50.030Z,26.60
2018-05-29T17:06:26.009Z,26.30
2018-05-29T17:09:00.219Z,26.30
2018-05-29T17:11:34.468Z,26.30
2018-05-29T17:14:09.644Z,26.20
2018-05-29T17:16:45.633Z,26.10
2018-05-29T17:19:19.859Z,26.10
2018-05-29T17:21:54.117Z,26.00
2018-05-29T17:24:29.287Z,25.90
2018-05-29T17:27:03.519Z,25.70
2018-05-29T17:29:39.336Z,25.60
2018-05-29T17:32:14.548Z,25.50
2018-05-29T17:34:48.789Z,25.40
2018-05-29T17:37:23.483Z,25.30
2018-05-29T17:39:57.704Z,25.20
2018-05-29T17:42:31.965Z,25.10
2018-05-29T17:45:05.555Z,25.00
2018-05-29T17:47:39.961Z,24.90
2018-05-29T17:50:15.923Z,24.90
2018-05-29T17:52:50.160Z,24.80
2018-05-29T17:58:06.020Z,24.60
2018-05-29T18:00:41.004Z,24.60
2018-05-29T18:03:16.223Z,24.50
2018-05-29T18:05:50.429Z,24.50
2018-05-29T18:08:24.664Z,24.40
2018-05-29T18:10:58.883Z,24.30
2018-05-29T18:13:33.134Z,24.30
2018-05-29T18:16:07.333Z,24.20
2018-05-29T18:18:41.578Z,24.20
2018-05-29T18:21:16.552Z,24.00
2018-05-29T18:23:56.365Z,23.90
2018-05-29T18:26:31.952Z,23.90
2018-05-29T18:29:07.241Z,23.80
2018-05-29T18:31:41.887Z,23.60
2018-05-29T18:34:16.135Z,23.60
2018-05-29T18:36:51.303Z,23.50
2018-05-29T18:39:26.513Z,23.40
2018-05-29T18:42:06.348Z,23.30
2018-05-29T18:44:40.749Z,23.20
2018-05-29T18:47:16.101Z,23.10
2018-05-29T18:49:52.614Z,23.00
2018-05-29T18:52:29.038Z,23.00
2018-05-29T18:55:03.709Z,22.90
2018-05-29T18:57:39.446Z,22.80
2018-05-29T19:00:14.285Z,22.80
2018-05-29T19:02:50.717Z,22.80
2018-05-29T19:05:28.031Z,22.60
2018-05-29T19:08:02.317Z,22.40
2018-05-29T19:10:36.524Z,22.30
2018-05-29T19:13:10.982Z,22.20
2018-05-29T19:15:45.959Z,22.00
2018-05-29T19:18:21.959Z,21.90
2018-05-29T19:20:56.173Z,21.80
2018-05-29T19:23:30.407Z,21.70
2018-05-29T19:26:05.375Z,21.40
2018-05-29T19:28:39.617Z,21.50
2018-05-29T19:31:13.816Z,21.30
2018-05-29T19:33:48.067Z,21.20
2018-05-29T19:36:23.709Z,21.20
2018-05-29T19:38:57.988Z,21.20
2018-05-29T19:41:32.958Z,21.10
2018-05-29T19:44:08.151Z,21.10
2018-05-29T19:46:42.348Z,21.00
2018-05-29T19:49:16.583Z,20.90
2018-05-29T19:51:50.779Z,20.90
2018-05-29T19:54:25.047Z,20.80
2018-05-29T19:57:00.215Z,20.70
2018-05-29T19:59:35.272Z,20.60
2018-05-29T20:02:09.473Z,20.60
2018-05-29T20:04:43.708Z,20.50
2018-05-29T20:07:17.931Z,20.30
2018-05-29T20:09:53.150Z,20.20
2018-05-29T20:12:27.346Z,20.10
2018-05-29T20:15:02.344Z,20.00
2018-05-29T20:17:36.619Z,20.00
2018-05-29T20:20:11.677Z,20.00
2018-05-29T20:22:46.783Z,19.80
2018-05-29T20:28:05.493Z,19.70
2018-05-29T20:30:42.807Z,19.60
2018-05-29T20:36:14.693Z,19.60
2018-05-29T20:38:59.326Z,19.50
2018-05-29T20:41:45.385Z,19.40
2018-05-29T20:44:25.465Z,19.30
2018-05-29T20:47:00.820Z,19.20
2018-05-29T20:49:35.053Z,19.20
2018-05-29T20:52:10.268Z,19.10
2018-05-29T20:54:44.469Z,19.10
2018-05-29T20:57:18.710Z,19.00
2018-05-29T20:59:54.216Z,18.90
2018-05-29T21:02:32.138Z,18.90
2018-05-29T21:05:06.420Z,18.90
2018-05-29T21:07:40.628Z,18.80
2018-05-29T21:10:15.825Z,18.80
2018-05-29T21:12:50.884Z,18.80
2018-05-29T21:15:25.141Z,18.80
2018-05-29T21:17:59.336Z,18.80
2018-05-29T21:20:33.572Z,18.80
2018-05-29T21:23:07.771Z,18.70
2018-05-29T21:25:42.016Z,18.70
2018-05-29T21:28:16.997Z,18.50
2018-05-29T21:30:51.416Z,18.50
2018-05-29T21:33:25.608Z,18.50
2018-05-29T21:35:59.851Z,18.30
2018-05-29T21:38:42.784Z,18.30
2018-05-29T21:41:18.619Z,18.20
2018-05-29T21:43:53.942Z,18.10
2018-05-29T21:46:34.384Z,18.00
2018-05-29T21:49:11.861Z,17.80
2018-05-29T21:51:47.838Z,17.70
2018-05-29T21:54:35.527Z,17.60
2018-05-29T21:57:10.848Z,17.60
2018-05-29T21:59:45.045Z,17.40
2018-05-29T22:02:20.668Z,17.40
2018-05-29T22:04:54.865Z,17.30
2018-05-29T22:07:32.169Z,17.20
2018-05-29T22:13:06.111Z,17.10
2018-05-29T22:15:44.653Z,17.00
2018-05-29T22:18:22.389Z,17.00
2018-05-29T22:20:56.674Z,17.00
2018-05-29T22:23:34.210Z,16.90
2018-05-29T22:26:12.823Z,16.80
2018-05-29T22:28:48.015Z,16.80
2018-05-29T22:31:27.628Z,16.70
2018-05-29T22:34:04.906Z,16.70
2018-05-29T22:36:39.694Z,16.60
2018-05-29T22:39:16.854Z,16.60
2018-05-29T22:41:54.384Z,16.60
2018-05-29T22:44:28.597Z,16.50
2018-05-29T22:47:04.085Z,16.40
2018-05-29T22:49:43.496Z,16.30
2018-05-29T22:52:17.753Z,16.30
2018-05-29T22:54:53.480Z,16.20
2018-05-29T22:57:27.866Z,16.10
2018-05-29T23:00:03.730Z,16.00
2018-05-29T23:02:39.016Z,15.90
2018-05-29T23:05:18.963Z,15.80
2018-05-29T23:07:54.832Z,15.80
2018-05-29T23:10:30.855Z,15.80
2018-05-29T23:13:05.630Z,15.80
2018-05-29T23:15:39.862Z,15.80
2018-05-29T23:18:15.794Z,15.90
2018-05-29T23:20:51.002Z,15.80
2018-05-29T23:23:25.203Z,15.90
2018-05-29T23:25:59.441Z,15.90
2018-05-29T23:28:33.641Z,15.90
2018-05-29T23:31:07.879Z,15.80
2018-05-29T23:33:42.849Z,15.80
2018-05-29T23:36:17.093Z,15.80
2018-05-29T23:38:51.293Z,15.80
2018-05-29T23:41:25.519Z,15.60
2018-05-29T23:43:59.716Z,15.50
2018-05-29T23:46:33.941Z,15.40
2018-05-29T23:49:08.122Z,15.30
2018-05-29T23:51:42.361Z,15.30
2018-05-29T23:54:16.558Z,15.20
2018-05-29T23:56:51.773Z,15.10
2018-05-29T23:59:25.968Z,15.00
